sensor_id;sensor_type;location;lat;lon;timestamp;P1;durP1;ratioP1;P2;durP2;ratioP2
65924;SDS011;66010;52.084;5.412;2023-09-18T00:01:39;6.90;;;3.00;;
65924;SDS011;66010;52.084;5.412;2023-09-18T00:04:06;7.97;;;3.30;;
65924;SDS011;66010;52.084;5.412;2023-09-18T00:06:32;10.27;;;2.95;;
65924;SDS011;66010;52.084;5.412;2023-09-18T00:08:59;12.38;;;3.03;;
65924;SDS011;66010;52.084;5.412;2023-09-18T00:11:26;7.80;;;2.88;;
65924;SDS011;66010;52.084;5.412;2023-09-18T00:16:19;10.27;;;3.20;;
65924;SDS011;66010;52.084;5.412;2023-09-18T00:18:46;8.13;;;2.90;;
65924;SDS011;66010;52.084;5.412;2023-09-18T00:21:12;5.78;;;2.70;;
65924;SDS011;66010;52.084;5.412;2023-09-18T00:23:39;9.60;;;3.17;;
65924;SDS011;66010;52.084;5.412;2023-09-18T00:26:06;7.93;;;2.80;;
65924;SDS011;66010;52.084;5.412;2023-09-18T00:28:32;6.80;;;2.85;;
65924;SDS011;66010;52.084;5.412;2023-09-18T00:30:59;6.45;;;2.88;;
65924;SDS011;66010;52.084;5.412;2023-09-18T00:33:25;8.73;;;2.85;;
65924;SDS011;66010;52.084;5.412;2023-09-18T00:35:52;7.57;;;2.88;;
65924;SDS011;66010;52.084;5.412;2023-09-18T00:38:19;6.55;;;2.90;;
65924;SDS011;66010;52.084;5.412;2023-09-18T00:40:48;7.13;;;2.95;;
65924;SDS011;66010;52.084;5.412;2023-09-18T00:43:15;7.95;;;2.90;;
65924;SDS011;66010;52.084;5.412;2023-09-18T00:45:42;7.57;;;2.83;;
65924;SDS011;66010;52.084;5.412;2023-09-18T00:48:10;5.13;;;2.70;;
65924;SDS011;66010;52.084;5.412;2023-09-18T00:50:37;6.57;;;2.80;;
65924;SDS011;66010;52.084;5.412;2023-09-18T00:53:04;8.93;;;2.85;;
65924;SDS011;66010;52.084;5.412;2023-09-18T00:55:34;5.43;;;2.80;;
65924;SDS011;66010;52.084;5.412;2023-09-18T00:58:02;7.35;;;3.35;;
65924;SDS011;66010;52.084;5.412;2023-09-18T01:00:29;5.07;;;2.88;;
65924;SDS011;66010;52.084;5.412;2023-09-18T01:02:56;6.78;;;3.03;;
65924;SDS011;66010;52.084;5.412;2023-09-18T01:05:23;5.15;;;2.63;;
65924;SDS011;66010;52.084;5.412;2023-09-18T01:07:49;6.20;;;2.80;;
65924;SDS011;66010;52.084;5.412;2023-09-18T01:10:16;8.48;;;2.95;;
65924;SDS011;66010;52.084;5.412;2023-09-18T01:12:47;5.82;;;3.20;;
65924;SDS011;66010;52.084;5.412;2023-09-18T01:15:18;5.60;;;2.90;;
65924;SDS011;66010;52.084;5.412;2023-09-18T01:17:47;6.53;;;2.92;;
65924;SDS011;66010;52.084;5.412;2023-09-18T01:20:14;7.38;;;3.40;;
65924;SDS011;66010;52.084;5.412;2023-09-18T01:22:41;6.47;;;3.33;;
65924;SDS011;66010;52.084;5.412;2023-09-18T01:25:08;5.50;;;2.95;;
65924;SDS011;66010;52.084;5.412;2023-09-18T01:27:34;6.32;;;2.90;;
65924;SDS011;66010;52.084;5.412;2023-09-18T01:30:01;6.25;;;2.90;;
65924;SDS011;66010;52.084;5.412;2023-09-18T01:32:28;7.07;;;2.83;;
65924;SDS011;66010;52.084;5.412;2023-09-18T01:34:57;7.18;;;3.00;;
65924;SDS011;66010;52.084;5.412;2023-09-18T01:37:27;6.13;;;2.97;;
65924;SDS011;66010;52.084;5.412;2023-09-18T01:39:54;6.07;;;3.10;;
65924;SDS011;66010;52.084;5.412;2023-09-18T01:42:21;6.18;;;3.20;;
65924;SDS011;66010;52.084;5.412;2023-09-18T01:44:49;7.20;;;3.20;;
65924;SDS011;66010;52.084;5.412;2023-09-18T01:47:17;5.93;;;3.30;;
65924;SDS011;66010;52.084;5.412;2023-09-18T01:49:44;7.00;;;3.15;;
65924;SDS011;66010;52.084;5.412;2023-09-18T01:52:12;7.78;;;3.20;;
65924;SDS011;66010;52.084;5.412;2023-09-18T01:54:40;6.82;;;3.30;;
65924;SDS011;66010;52.084;5.412;2023-09-18T01:57:06;8.23;;;3.15;;
65924;SDS011;66010;52.084;5.412;2023-09-18T01:59:34;7.05;;;3.17;;
65924;SDS011;66010;52.084;5.412;2023-09-18T02:02:02;6.07;;;3.33;;
65924;SDS011;66010;52.084;5.412;2023-09-18T02:04:34;6.85;;;3.13;;
65924;SDS011;66010;52.084;5.412;2023-09-18T02:07:24;7.45;;;3.45;;
65924;SDS011;66010;52.084;5.412;2023-09-18T02:09:50;6.28;;;3.30;;
65924;SDS011;66010;52.084;5.412;2023-09-18T02:12:17;7.18;;;3.38;;
65924;SDS011;66010;52.084;5.412;2023-09-18T02:14:44;8.02;;;3.42;;
65924;SDS011;66010;52.084;5.412;2023-09-18T02:17:11;7.95;;;3.50;;
65924;SDS011;66010;52.084;5.412;2023-09-18T02:19:38;7.40;;;3.40;;
65924;SDS011;66010;52.084;5.412;2023-09-18T02:22:05;6.55;;;3.47;;
65924;SDS011;66010;52.084;5.412;2023-09-18T02:24:31;6.82;;;3.67;;
65924;SDS011;66010;52.084;5.412;2023-09-18T02:26:58;7.65;;;3.88;;
65924;SDS011;66010;52.084;5.412;2023-09-18T02:29:24;9.93;;;4.07;;
65924;SDS011;66010;52.084;5.412;2023-09-18T02:31:51;7.55;;;3.78;;
65924;SDS011;66010;52.084;5.412;2023-09-18T02:34:18;8.43;;;3.90;;
65924;SDS011;66010;52.084;5.412;2023-09-18T02:36:45;9.32;;;3.88;;
65924;SDS011;66010;52.084;5.412;2023-09-18T02:39:12;7.68;;;4.03;;
65924;SDS011;66010;52.084;5.412;2023-09-18T02:41:39;9.43;;;4.72;;
65924;SDS011;66010;52.084;5.412;2023-09-18T02:44:06;9.55;;;4.53;;
65924;SDS011;66010;52.084;5.412;2023-09-18T02:46:32;7.85;;;4.40;;
65924;SDS011;66010;52.084;5.412;2023-09-18T02:48:59;9.50;;;4.18;;
65924;SDS011;66010;52.084;5.412;2023-09-18T02:51:26;11.50;;;4.82;;
65924;SDS011;66010;52.084;5.412;2023-09-18T02:53:53;8.80;;;4.53;;
65924;SDS011;66010;52.084;5.412;2023-09-18T02:56:19;10.25;;;4.75;;
65924;SDS011;66010;52.084;5.412;2023-09-18T02:58:46;9.23;;;4.95;;
65924;SDS011;66010;52.084;5.412;2023-09-18T03:01:12;9.52;;;4.70;;
65924;SDS011;66010;52.084;5.412;2023-09-18T03:06:08;8.20;;;4.45;;
65924;SDS011;66010;52.084;5.412;2023-09-18T03:08:35;9.02;;;4.40;;
65924;SDS011;66010;52.084;5.412;2023-09-18T03:11:03;8.65;;;4.63;;
65924;SDS011;66010;52.084;5.412;2023-09-18T03:13:36;8.73;;;4.40;;
65924;SDS011;66010;52.084;5.412;2023-09-18T03:16:03;9.02;;;4.45;;
65924;SDS011;66010;52.084;5.412;2023-09-18T03:18:30;9.95;;;4.80;;
65924;SDS011;66010;52.084;5.412;2023-09-18T03:20:57;11.15;;;4.40;;
65924;SDS011;66010;52.084;5.412;2023-09-18T03:23:23;8.70;;;4.18;;
65924;SDS011;66010;52.084;5.412;2023-09-18T03:25:50;10.70;;;4.85;;
65924;SDS011;66010;52.084;5.412;2023-09-18T03:28:19;10.68;;;4.32;;
65924;SDS011;66010;52.084;5.412;2023-09-18T03:30:46;9.25;;;4.60;;
65924;SDS011;66010;52.084;5.412;2023-09-18T03:33:13;8.60;;;4.38;;
65924;SDS011;66010;52.084;5.412;2023-09-18T03:35:46;9.00;;;4.55;;
65924;SDS011;66010;52.084;5.412;2023-09-18T03:38:14;8.70;;;4.35;;
65924;SDS011;66010;52.084;5.412;2023-09-18T03:40:42;9.30;;;4.60;;
65924;SDS011;66010;52.084;5.412;2023-09-18T03:43:10;9.43;;;4.43;;
65924;SDS011;66010;52.084;5.412;2023-09-18T03:45:36;8.27;;;4.30;;
65924;SDS011;66010;52.084;5.412;2023-09-18T03:48:03;8.73;;;4.60;;
65924;SDS011;66010;52.084;5.412;2023-09-18T03:50:30;10.32;;;4.75;;
65924;SDS011;66010;52.084;5.412;2023-09-18T03:52:57;8.75;;;4.75;;
65924;SDS011;66010;52.084;5.412;2023-09-18T03:55:24;10.35;;;4.82;;
65924;SDS011;66010;52.084;5.412;2023-09-18T03:57:51;9.82;;;4.75;;
65924;SDS011;66010;52.084;5.412;2023-09-18T04:00:18;9.85;;;4.80;;
65924;SDS011;66010;52.084;5.412;2023-09-18T04:02:45;12.35;;;5.70;;
65924;SDS011;66010;52.084;5.412;2023-09-18T04:05:12;10.80;;;5.07;;
65924;SDS011;66010;52.084;5.412;2023-09-18T04:07:38;10.68;;;6.35;;
65924;SDS011;66010;52.084;5.412;2023-09-18T04:10:05;11.75;;;5.47;;
65924;SDS011;66010;52.084;5.412;2023-09-18T04:12:32;13.48;;;7.68;;
65924;SDS011;66010;52.084;5.412;2023-09-18T04:14:58;14.50;;;7.82;;
65924;SDS011;66010;52.084;5.412;2023-09-18T04:17:25;11.20;;;5.93;;
65924;SDS011;66010;52.084;5.412;2023-09-18T04:19:52;10.35;;;6.18;;
65924;SDS011;66010;52.084;5.412;2023-09-18T04:22:18;14.50;;;7.20;;
65924;SDS011;66010;52.084;5.412;2023-09-18T04:24:45;14.63;;;7.13;;
65924;SDS011;66010;52.084;5.412;2023-09-18T04:27:12;12.73;;;7.32;;
65924;SDS011;66010;52.084;5.412;2023-09-18T04:29:38;11.82;;;7.05;;
65924;SDS011;66010;52.084;5.412;2023-09-18T04:32:05;14.90;;;6.78;;
65924;SDS011;66010;52.084;5.412;2023-09-18T04:34:33;15.45;;;6.80;;
65924;SDS011;66010;52.084;5.412;2023-09-18T04:37:01;12.48;;;6.25;;
65924;SDS011;66010;52.084;5.412;2023-09-18T04:39:28;10.98;;;5.63;;
65924;SDS011;66010;52.084;5.412;2023-09-18T04:41:57;11.68;;;6.25;;
65924;SDS011;66010;52.084;5.412;2023-09-18T04:44:24;11.93;;;5.50;;
65924;SDS011;66010;52.084;5.412;2023-09-18T04:46:51;11.60;;;6.00;;
65924;SDS011;66010;52.084;5.412;2023-09-18T04:49:18;12.18;;;6.00;;
65924;SDS011;66010;52.084;5.412;2023-09-18T04:51:45;12.18;;;7.22;;
65924;SDS011;66010;52.084;5.412;2023-09-18T04:54:11;15.90;;;8.88;;
65924;SDS011;66010;52.084;5.412;2023-09-18T04:56:38;13.68;;;6.55;;
65924;SDS011;66010;52.084;5.412;2023-09-18T04:59:05;14.77;;;6.95;;
65924;SDS011;66010;52.084;5.412;2023-09-18T05:01:32;15.27;;;5.75;;
65924;SDS011;66010;52.084;5.412;2023-09-18T05:03:58;13.60;;;5.80;;
65924;SDS011;66010;52.084;5.412;2023-09-18T05:06:25;12.85;;;4.65;;
65924;SDS011;66010;52.084;5.412;2023-09-18T05:08:52;10.40;;;5.10;;
65924;SDS011;66010;52.084;5.412;2023-09-18T05:11:21;11.35;;;4.97;;
65924;SDS011;66010;52.084;5.412;2023-09-18T05:13:48;9.48;;;4.70;;
65924;SDS011;66010;52.084;5.412;2023-09-18T05:16:15;10.23;;;4.32;;
65924;SDS011;66010;52.084;5.412;2023-09-18T05:18:42;10.05;;;4.40;;
65924;SDS011;66010;52.084;5.412;2023-09-18T05:21:09;8.48;;;4.28;;
65924;SDS011;66010;52.084;5.412;2023-09-18T05:23:36;10.25;;;4.35;;
65924;SDS011;66010;52.084;5.412;2023-09-18T05:26:03;9.40;;;3.72;;
65924;SDS011;66010;52.084;5.412;2023-09-18T05:28:30;7.95;;;3.75;;
65924;SDS011;66010;52.084;5.412;2023-09-18T05:30:56;7.35;;;3.67;;
65924;SDS011;66010;52.084;5.412;2023-09-18T05:33:23;8.88;;;3.60;;
65924;SDS011;66010;52.084;5.412;2023-09-18T05:35:49;7.35;;;3.58;;
65924;SDS011;66010;52.084;5.412;2023-09-18T05:38:17;7.78;;;3.60;;
65924;SDS011;66010;52.084;5.412;2023-09-18T05:43:11;6.80;;;3.50;;
65924;SDS011;66010;52.084;5.412;2023-09-18T05:45:38;6.85;;;3.60;;
65924;SDS011;66010;52.084;5.412;2023-09-18T05:48:05;7.70;;;3.60;;
65924;SDS011;66010;52.084;5.412;2023-09-18T05:50:32;7.20;;;3.35;;
65924;SDS011;66010;52.084;5.412;2023-09-18T05:55:26;7.53;;;3.35;;
65924;SDS011;66010;52.084;5.412;2023-09-18T05:57:53;7.15;;;3.30;;
65924;SDS011;66010;52.084;5.412;2023-09-18T06:00:20;7.65;;;3.30;;
65924;SDS011;66010;52.084;5.412;2023-09-18T06:02:48;7.00;;;3.42;;
65924;SDS011;66010;52.084;5.412;2023-09-18T06:05:15;8.10;;;3.30;;
65924;SDS011;66010;52.084;5.412;2023-09-18T06:07:42;7.75;;;3.72;;
65924;SDS011;66010;52.084;5.412;2023-09-18T06:10:09;8.90;;;3.22;;
65924;SDS011;66010;52.084;5.412;2023-09-18T06:12:37;10.65;;;3.20;;
65924;SDS011;66010;52.084;5.412;2023-09-18T06:15:05;7.20;;;3.22;;
65924;SDS011;66010;52.084;5.412;2023-09-18T06:17:34;7.00;;;3.42;;
65924;SDS011;66010;52.084;5.412;2023-09-18T06:20:00;8.27;;;3.33;;
65924;SDS011;66010;52.084;5.412;2023-09-18T06:22:27;7.00;;;3.33;;
65924;SDS011;66010;52.084;5.412;2023-09-18T06:24:54;6.45;;;3.10;;
65924;SDS011;66010;52.084;5.412;2023-09-18T06:27:20;6.03;;;2.95;;
65924;SDS011;66010;52.084;5.412;2023-09-18T06:29:47;6.72;;;3.10;;
65924;SDS011;66010;52.084;5.412;2023-09-18T06:32:13;6.80;;;2.90;;
65924;SDS011;66010;52.084;5.412;2023-09-18T06:34:40;7.22;;;3.05;;
65924;SDS011;66010;52.084;5.412;2023-09-18T06:37:10;6.57;;;3.20;;
65924;SDS011;66010;52.084;5.412;2023-09-18T06:39:39;7.22;;;3.30;;
65924;SDS011;66010;52.084;5.412;2023-09-18T06:42:05;9.27;;;3.40;;
65924;SDS011;66010;52.084;5.412;2023-09-18T06:44:32;8.23;;;3.15;;
65924;SDS011;66010;52.084;5.412;2023-09-18T06:46:59;7.80;;;3.30;;
65924;SDS011;66010;52.084;5.412;2023-09-18T06:49:25;9.88;;;3.42;;
65924;SDS011;66010;52.084;5.412;2023-09-18T06:51:52;9.27;;;4.05;;
65924;SDS011;66010;52.084;5.412;2023-09-18T06:54:18;9.25;;;3.80;;
65924;SDS011;66010;52.084;5.412;2023-09-18T06:56:45;8.77;;;3.78;;
65924;SDS011;66010;52.084;5.412;2023-09-18T06:59:12;10.98;;;3.97;;
65924;SDS011;66010;52.084;5.412;2023-09-18T07:01:45;8.77;;;4.75;;
65924;SDS011;66010;52.084;5.412;2023-09-18T07:04:12;8.02;;;4.63;;
65924;SDS011;66010;52.084;5.412;2023-09-18T07:06:38;10.30;;;4.93;;
65924;SDS011;66010;52.084;5.412;2023-09-18T07:09:05;10.73;;;5.30;;
65924;SDS011;66010;52.084;5.412;2023-09-18T07:11:33;10.25;;;4.97;;
65924;SDS011;66010;52.084;5.412;2023-09-18T07:14:00;10.65;;;5.00;;
65924;SDS011;66010;52.084;5.412;2023-09-18T07:16:33;11.60;;;5.53;;
65924;SDS011;66010;52.084;5.412;2023-09-18T07:19:00;12.43;;;5.30;;
65924;SDS011;66010;52.084;5.412;2023-09-18T07:21:27;12.48;;;5.35;;
65924;SDS011;66010;52.084;5.412;2023-09-18T07:23:55;10.43;;;5.38;;
65924;SDS011;66010;52.084;5.412;2023-09-18T07:26:22;14.18;;;5.55;;
65924;SDS011;66010;52.084;5.412;2023-09-18T07:28:48;12.43;;;6.13;;
65924;SDS011;66010;52.084;5.412;2023-09-18T07:31:15;13.07;;;6.90;;
65924;SDS011;66010;52.084;5.412;2023-09-18T07:33:42;11.40;;;6.22;;
65924;SDS011;66010;52.084;5.412;2023-09-18T07:36:09;11.48;;;6.53;;
65924;SDS011;66010;52.084;5.412;2023-09-18T07:38:41;11.20;;;6.25;;
65924;SDS011;66010;52.084;5.412;2023-09-18T07:41:09;11.63;;;6.13;;
65924;SDS011;66010;52.084;5.412;2023-09-18T07:43:36;10.32;;;5.78;;
65924;SDS011;66010;52.084;5.412;2023-09-18T07:48:30;9.75;;;5.50;;
65924;SDS011;66010;52.084;5.412;2023-09-18T07:50:57;11.73;;;6.07;;
65924;SDS011;66010;52.084;5.412;2023-09-18T07:53:24;11.55;;;5.80;;
65924;SDS011;66010;52.084;5.412;2023-09-18T07:55:55;9.77;;;5.10;;
65924;SDS011;66010;52.084;5.412;2023-09-18T07:58:21;9.02;;;5.10;;
65924;SDS011;66010;52.084;5.412;2023-09-18T08:00:48;10.05;;;4.97;;
65924;SDS011;66010;52.084;5.412;2023-09-18T08:03:18;10.77;;;5.15;;
65924;SDS011;66010;52.084;5.412;2023-09-18T08:05:45;9.50;;;4.90;;
65924;SDS011;66010;52.084;5.412;2023-09-18T08:08:14;9.13;;;4.88;;
65924;SDS011;66010;52.084;5.412;2023-09-18T08:10:40;9.68;;;4.65;;
65924;SDS011;66010;52.084;5.412;2023-09-18T08:13:07;9.23;;;4.70;;
65924;SDS011;66010;52.084;5.412;2023-09-18T08:15:34;8.88;;;4.57;;
65924;SDS011;66010;52.084;5.412;2023-09-18T08:18:01;10.20;;;4.72;;
65924;SDS011;66010;52.084;5.412;2023-09-18T08:20:28;10.52;;;4.53;;
65924;SDS011;66010;52.084;5.412;2023-09-18T08:22:55;8.43;;;4.53;;
65924;SDS011;66010;52.084;5.412;2023-09-18T08:25:23;8.38;;;3.20;;
65924;SDS011;66010;52.084;5.412;2023-09-18T08:27:50;8.05;;;3.60;;
65924;SDS011;66010;52.084;5.412;2023-09-18T08:30:17;8.40;;;4.30;;
65924;SDS011;66010;52.084;5.412;2023-09-18T08:32:47;8.82;;;4.45;;
65924;SDS011;66010;52.084;5.412;2023-09-18T08:35:14;9.25;;;4.00;;
65924;SDS011;66010;52.084;5.412;2023-09-18T08:37:41;9.00;;;3.72;;
65924;SDS011;66010;52.084;5.412;2023-09-18T08:40:11;9.30;;;4.38;;
65924;SDS011;66010;52.084;5.412;2023-09-18T08:42:44;8.25;;;4.10;;
65924;SDS011;66010;52.084;5.412;2023-09-18T08:45:12;7.38;;;3.53;;
65924;SDS011;66010;52.084;5.412;2023-09-18T08:47:41;8.15;;;3.67;;
65924;SDS011;66010;52.084;5.412;2023-09-18T08:50:10;7.82;;;3.78;;
65924;SDS011;66010;52.084;5.412;2023-09-18T08:52:37;8.13;;;3.80;;
65924;SDS011;66010;52.084;5.412;2023-09-18T08:55:05;8.02;;;3.35;;
65924;SDS011;66010;52.084;5.412;2023-09-18T08:57:36;7.50;;;3.65;;
65924;SDS011;66010;52.084;5.412;2023-09-18T09:00:03;7.40;;;3.75;;
65924;SDS011;66010;52.084;5.412;2023-09-18T09:02:34;7.00;;;3.00;;
65924;SDS011;66010;52.084;5.412;2023-09-18T09:05:01;7.13;;;3.17;;
65924;SDS011;66010;52.084;5.412;2023-09-18T09:07:28;7.72;;;3.60;;
65924;SDS011;66010;52.084;5.412;2023-09-18T09:09:57;8.05;;;3.40;;
65924;SDS011;66010;52.084;5.412;2023-09-18T09:15:29;6.50;;;3.40;;
65924;SDS011;66010;52.084;5.412;2023-09-18T09:18:02;7.40;;;3.22;;
65924;SDS011;66010;52.084;5.412;2023-09-18T09:20:29;7.82;;;3.17;;
65924;SDS011;66010;52.084;5.412;2023-09-18T09:22:59;7.40;;;3.05;;
65924;SDS011;66010;52.084;5.412;2023-09-18T09:25:27;7.93;;;2.92;;
65924;SDS011;66010;52.084;5.412;2023-09-18T09:27:55;7.57;;;3.10;;
65924;SDS011;66010;52.084;5.412;2023-09-18T09:30:24;7.80;;;3.15;;
65924;SDS011;66010;52.084;5.412;2023-09-18T09:32:52;6.72;;;2.83;;
65924;SDS011;66010;52.084;5.412;2023-09-18T09:35:23;7.60;;;2.70;;
65924;SDS011;66010;52.084;5.412;2023-09-18T09:37:50;7.65;;;2.70;;
65924;SDS011;66010;52.084;5.412;2023-09-18T09:40:19;6.15;;;2.63;;
65924;SDS011;66010;52.084;5.412;2023-09-18T09:42:46;7.43;;;2.90;;
65924;SDS011;66010;52.084;5.412;2023-09-18T09:45:13;5.93;;;2.65;;
65924;SDS011;66010;52.084;5.412;2023-09-18T09:47:42;7.65;;;3.00;;
65924;SDS011;66010;52.084;5.412;2023-09-18T09:50:13;6.97;;;3.10;;
65924;SDS011;66010;52.084;5.412;2023-09-18T09:52:41;7.05;;;2.80;;
65924;SDS011;66010;52.084;5.412;2023-09-18T09:55:21;5.90;;;2.90;;
65924;SDS011;66010;52.084;5.412;2023-09-18T09:57:49;6.88;;;3.03;;
65924;SDS011;66010;52.084;5.412;2023-09-18T10:00:16;6.53;;;3.17;;
65924;SDS011;66010;52.084;5.412;2023-09-18T10:02:55;6.75;;;3.55;;
65924;SDS011;66010;52.084;5.412;2023-09-18T10:05:24;8.73;;;3.90;;
65924;SDS011;66010;52.084;5.412;2023-09-18T10:07:57;8.63;;;3.47;;
65924;SDS011;66010;52.084;5.412;2023-09-18T10:10:27;8.57;;;3.30;;
65924;SDS011;66010;52.084;5.412;2023-09-18T10:13:03;6.43;;;3.28;;
65924;SDS011;66010;52.084;5.412;2023-09-18T10:15:32;7.70;;;3.80;;
65924;SDS011;66010;52.084;5.412;2023-09-18T10:17:59;9.07;;;3.47;;
65924;SDS011;66010;52.084;5.412;2023-09-18T10:20:26;10.35;;;3.83;;
65924;SDS011;66010;52.084;5.412;2023-09-18T10:22:54;7.28;;;3.50;;
65924;SDS011;66010;52.084;5.412;2023-09-18T10:25:29;8.98;;;4.03;;
65924;SDS011;66010;52.084;5.412;2023-09-18T10:27:58;7.50;;;4.53;;
65924;SDS011;66010;52.084;5.412;2023-09-18T10:30:29;8.60;;;5.10;;
65924;SDS011;66010;52.084;5.412;2023-09-18T10:32:56;8.32;;;5.05;;
65924;SDS011;66010;52.084;5.412;2023-09-18T10:35:24;9.60;;;5.90;;
65924;SDS011;66010;52.084;5.412;2023-09-18T10:37:51;10.77;;;5.65;;
65924;SDS011;66010;52.084;5.412;2023-09-18T10:40:20;8.75;;;5.78;;
65924;SDS011;66010;52.084;5.412;2023-09-18T10:42:47;9.05;;;5.60;;
65924;SDS011;66010;52.084;5.412;2023-09-18T10:45:14;9.57;;;5.38;;
65924;SDS011;66010;52.084;5.412;2023-09-18T10:47:43;8.38;;;5.20;;
65924;SDS011;66010;52.084;5.412;2023-09-18T10:50:12;8.63;;;5.90;;
65924;SDS011;66010;52.084;5.412;2023-09-18T10:52:42;9.18;;;5.47;;
65924;SDS011;66010;52.084;5.412;2023-09-18T10:55:12;10.18;;;6.22;;
65924;SDS011;66010;52.084;5.412;2023-09-18T10:57:55;10.38;;;5.85;;
65924;SDS011;66010;52.084;5.412;2023-09-18T11:00:25;11.85;;;6.15;;
65924;SDS011;66010;52.084;5.412;2023-09-18T11:02:55;10.88;;;5.68;;
65924;SDS011;66010;52.084;5.412;2023-09-18T11:05:35;10.98;;;6.00;;
65924;SDS011;66010;52.084;5.412;2023-09-18T11:13:30;9.52;;;5.35;;
65924;SDS011;66010;52.084;5.412;2023-09-18T11:16:00;9.45;;;5.13;;
65924;SDS011;66010;52.084;5.412;2023-09-18T11:18:32;11.75;;;5.60;;
65924;SDS011;66010;52.084;5.412;2023-09-18T11:21:08;9.32;;;5.00;;
65924;SDS011;66010;52.084;5.412;2023-09-18T11:23:36;9.43;;;4.47;;
65924;SDS011;66010;52.084;5.412;2023-09-18T11:26:11;9.98;;;4.75;;
65924;SDS011;66010;52.084;5.412;2023-09-18T11:28:41;9.95;;;4.80;;
65924;SDS011;66010;52.084;5.412;2023-09-18T11:31:09;7.75;;;4.55;;
65924;SDS011;66010;52.084;5.412;2023-09-18T11:33:40;9.52;;;4.90;;
65924;SDS011;66010;52.084;5.412;2023-09-18T11:36:13;12.50;;;5.47;;
65924;SDS011;66010;52.084;5.412;2023-09-18T11:38:52;10.68;;;5.57;;
65924;SDS011;66010;52.084;5.412;2023-09-18T11:41:25;9.77;;;6.28;;
65924;SDS011;66010;52.084;5.412;2023-09-18T11:44:31;8.77;;;6.40;;
65924;SDS011;66010;52.084;5.412;2023-09-18T11:46:49;9.30;;;6.65;;
65924;SDS011;66010;52.084;5.412;2023-09-18T11:49:19;10.50;;;6.53;;
65924;SDS011;66010;52.084;5.412;2023-09-18T11:51:50;9.60;;;6.13;;
65924;SDS011;66010;52.084;5.412;2023-09-18T11:54:17;10.63;;;6.15;;
65924;SDS011;66010;52.084;5.412;2023-09-18T11:56:43;12.25;;;6.00;;
65924;SDS011;66010;52.084;5.412;2023-09-18T11:59:11;9.45;;;5.10;;
65924;SDS011;66010;52.084;5.412;2023-09-18T12:01:41;11.45;;;5.30;;
65924;SDS011;66010;52.084;5.412;2023-09-18T12:04:13;8.90;;;4.30;;
65924;SDS011;66010;52.084;5.412;2023-09-18T12:06:40;8.63;;;4.78;;
65924;SDS011;66010;52.084;5.412;2023-09-18T12:11:34;8.70;;;4.50;;
65924;SDS011;66010;52.084;5.412;2023-09-18T12:14:06;10.82;;;4.88;;
65924;SDS011;66010;52.084;5.412;2023-09-18T12:16:39;8.77;;;4.55;;
65924;SDS011;66010;52.084;5.412;2023-09-18T12:19:06;9.50;;;4.60;;
65924;SDS011;66010;52.084;5.412;2023-09-18T12:23:59;8.85;;;4.22;;
65924;SDS011;66010;52.084;5.412;2023-09-18T12:26:26;9.98;;;3.97;;
65924;SDS011;66010;52.084;5.412;2023-09-18T12:28:53;7.90;;;4.15;;
65924;SDS011;66010;52.084;5.412;2023-09-18T12:31:20;7.68;;;4.30;;
65924;SDS011;66010;52.084;5.412;2023-09-18T12:33:46;8.48;;;4.18;;
65924;SDS011;66010;52.084;5.412;2023-09-18T12:36:18;7.90;;;4.00;;
65924;SDS011;66010;52.084;5.412;2023-09-18T12:38:55;7.93;;;3.55;;
65924;SDS011;66010;52.084;5.412;2023-09-18T12:41:21;8.23;;;3.83;;
65924;SDS011;66010;52.084;5.412;2023-09-18T12:43:48;7.40;;;3.95;;
65924;SDS011;66010;52.084;5.412;2023-09-18T12:46:14;8.02;;;3.72;;
65924;SDS011;66010;52.084;5.412;2023-09-18T12:48:41;9.13;;;4.53;;
65924;SDS011;66010;52.084;5.412;2023-09-18T12:51:13;7.53;;;4.22;;
65924;SDS011;66010;52.084;5.412;2023-09-18T12:53:41;8.27;;;4.00;;
65924;SDS011;66010;52.084;5.412;2023-09-18T12:56:11;8.45;;;4.15;;
65924;SDS011;66010;52.084;5.412;2023-09-18T12:58:41;9.35;;;3.90;;
65924;SDS011;66010;52.084;5.412;2023-09-18T13:01:28;7.47;;;3.42;;
65924;SDS011;66010;52.084;5.412;2023-09-18T13:03:55;8.00;;;3.63;;
65924;SDS011;66010;52.084;5.412;2023-09-18T13:06:22;7.97;;;3.55;;
65924;SDS011;66010;52.084;5.412;2023-09-18T13:08:50;7.25;;;3.38;;
65924;SDS011;66010;52.084;5.412;2023-09-18T13:11:20;8.07;;;3.20;;
65924;SDS011;66010;52.084;5.412;2023-09-18T13:13:46;7.10;;;2.95;;
65924;SDS011;66010;52.084;5.412;2023-09-18T13:16:23;8.55;;;3.38;;
65924;SDS011;66010;52.084;5.412;2023-09-18T13:18:49;7.18;;;3.40;;
65924;SDS011;66010;52.084;5.412;2023-09-18T13:21:16;7.10;;;3.40;;
65924;SDS011;66010;52.084;5.412;2023-09-18T13:26:10;8.32;;;3.47;;
65924;SDS011;66010;52.084;5.412;2023-09-18T13:28:36;8.20;;;3.35;;
65924;SDS011;66010;52.084;5.412;2023-09-18T13:33:37;8.13;;;2.90;;
65924;SDS011;66010;52.084;5.412;2023-09-18T13:36:05;7.13;;;3.30;;
65924;SDS011;66010;52.084;5.412;2023-09-18T13:38:32;7.30;;;3.08;;
65924;SDS011;66010;52.084;5.412;2023-09-18T13:41:01;7.57;;;2.83;;
65924;SDS011;66010;52.084;5.412;2023-09-18T13:43:28;9.25;;;2.80;;
65924;SDS011;66010;52.084;5.412;2023-09-18T13:45:59;5.45;;;2.20;;
65924;SDS011;66010;52.084;5.412;2023-09-18T13:48:31;7.28;;;2.75;;
65924;SDS011;66010;52.084;5.412;2023-09-18T13:51:02;6.30;;;2.60;;
65924;SDS011;66010;52.084;5.412;2023-09-18T13:53:32;7.68;;;2.70;;
65924;SDS011;66010;52.084;5.412;2023-09-18T13:56:00;8.02;;;2.30;;
65924;SDS011;66010;52.084;5.412;2023-09-18T13:58:29;6.80;;;2.20;;
65924;SDS011;66010;52.084;5.412;2023-09-18T14:00:56;5.18;;;2.55;;
65924;SDS011;66010;52.084;5.412;2023-09-18T14:03:23;6.68;;;2.40;;
65924;SDS011;66010;52.084;5.412;2023-09-18T14:05:50;4.57;;;2.30;;
65924;SDS011;66010;52.084;5.412;2023-09-18T14:08:17;5.28;;;2.10;;
65924;SDS011;66010;52.084;5.412;2023-09-18T14:10:44;5.85;;;2.33;;
65924;SDS011;66010;52.084;5.412;2023-09-18T14:13:13;4.80;;;2.20;;
65924;SDS011;66010;52.084;5.412;2023-09-18T14:15:40;5.13;;;2.15;;
65924;SDS011;66010;52.084;5.412;2023-09-18T14:18:07;5.18;;;2.30;;
65924;SDS011;66010;52.084;5.412;2023-09-18T14:20:33;4.15;;;2.03;;
65924;SDS011;66010;52.084;5.412;2023-09-18T14:23:00;4.15;;;2.05;;
65924;SDS011;66010;52.084;5.412;2023-09-18T14:25:27;6.10;;;2.42;;
65924;SDS011;66010;52.084;5.412;2023-09-18T14:27:53;4.90;;;2.28;;
65924;SDS011;66010;52.084;5.412;2023-09-18T14:30:20;5.78;;;2.00;;
65924;SDS011;66010;52.084;5.412;2023-09-18T14:32:48;6.68;;;2.40;;
65924;SDS011;66010;52.084;5.412;2023-09-18T14:35:16;6.30;;;2.20;;
65924;SDS011;66010;52.084;5.412;2023-09-18T14:37:43;6.47;;;2.30;;
65924;SDS011;66010;52.084;5.412;2023-09-18T14:40:10;5.93;;;2.22;;
65924;SDS011;66010;52.084;5.412;2023-09-18T14:42:39;6.18;;;2.80;;
65924;SDS011;66010;52.084;5.412;2023-09-18T14:45:09;6.88;;;2.20;;
65924;SDS011;66010;52.084;5.412;2023-09-18T14:47:36;6.65;;;2.55;;
65924;SDS011;66010;52.084;5.412;2023-09-18T14:50:03;4.57;;;2.28;;
65924;SDS011;66010;52.084;5.412;2023-09-18T14:52:31;6.60;;;2.30;;
65924;SDS011;66010;52.084;5.412;2023-09-18T14:54:58;6.20;;;2.40;;
65924;SDS011;66010;52.084;5.412;2023-09-18T14:57:26;7.55;;;2.45;;
65924;SDS011;66010;52.084;5.412;2023-09-18T14:59:53;7.30;;;2.40;;
65924;SDS011;66010;52.084;5.412;2023-09-18T15:02:20;6.75;;;2.53;;
65924;SDS011;66010;52.084;5.412;2023-09-18T15:04:46;5.82;;;2.55;;
65924;SDS011;66010;52.084;5.412;2023-09-18T15:07:14;9.25;;;2.50;;
65924;SDS011;66010;52.084;5.412;2023-09-18T15:09:41;7.75;;;2.60;;
65924;SDS011;66010;52.084;5.412;2023-09-18T15:12:08;9.02;;;2.97;;
65924;SDS011;66010;52.084;5.412;2023-09-18T15:14:35;8.40;;;2.47;;
65924;SDS011;66010;52.084;5.412;2023-09-18T15:17:03;5.88;;;2.17;;
65924;SDS011;66010;52.084;5.412;2023-09-18T15:19:30;4.80;;;1.90;;
65924;SDS011;66010;52.084;5.412;2023-09-18T15:21:57;11.38;;;2.22;;